Latest Weather Observations for Low Head

IDT60801

Issued at 8:41 am EDT Wednesday 23 October 2019 (issued every 10 minutes, with the page automatically refreshed every 10 minutes)

About weather observations | Map of weather stations | Latest weather observations for TAS | Other Formats
Station Details ID: 091293 Name: LOW HEAD Lat: -41.05 Lon: 146.79 Height: 3.0 m
Data from the previous 72 hours. | See also: Recent months at Low Head
Date/Time
EDT
Temp
°C
App
Temp
°C
Dew
Point
°C
Rel
Hum
%
Delta-T
°C
Wind Press
QNH
hPa
Press
MSL
hPa
Rain since
9am
mm
Dir  Spd
km/h
Gust
km/h
Spd
kts
Gust
kts
23/08:30am 11.6 8.8 10.0 90 0.8 WNW 15 20 8 11 1020.8 1020.8 0.0
23/08:00am 11.5 9.4 9.8 89 0.9 NNW 11 17 6 9 1020.4 1020.4 0.0
23/07:30am 11.2 8.3 9.5 89 0.9 NNW 15 22 8 12 1020.5 1020.5 0.0
23/07:00am 11.3 8.9 10.0 92 0.7 WNW 13 19 7 10 1020.6 1020.6 0.0
23/06:30am 11.5 9.1 10.1 91 0.7 WNW 13 17 7 9 1020.3 1020.3 0.0
23/06:00am 11.7 9.4 10.4 92 0.7 NNW 13 19 7 10 1020.2 1020.2 0.0
23/05:30am 11.9 9.6 10.6 92 0.7 NW 13 17 7 9 1020.1 1020.1 0.0
23/05:00am 12.0 9.4 10.7 92 0.7 NW 15 20 8 11 1020.2 1020.2 0.0
23/04:30am 12.1 9.2 11.0 93 0.6 NW 17 19 9 10 1020.3 1020.3 0.0
23/04:00am 12.2 9.8 11.3 94 0.5 NW 15 19 8 10 1020.6 1020.6 0.0
23/03:30am 12.2 9.8 11.3 94 0.5 NNW 15 19 8 10 1020.6 1020.6 0.0
23/03:00am 12.1 11.8 11.5 96 0.3 N 4 15 2 8 1020.8 1020.8 0.0
23/02:30am 10.9 9.2 10.0 94 0.5 E 9 11 5 6 1020.9 1020.9 0.0
23/02:00am 11.1 10.5 10.3 95 0.4 ENE 4 9 2 5 1021.2 1021.2 0.0
23/01:30am 10.8 9.1 10.0 95 0.4 E 9 11 5 6 1021.5 1021.5 0.0
23/01:00am 10.1 8.6 9.2 94 0.4 ESE 7 9 4 5 1022.0 1022.0 0.0
23/12:30am 9.9 8.3 8.8 93 0.5 SSE 7 9 4 5 1022.3 1022.3 0.0
23/12:00am 10.2 8.3 9.1 93 0.5 E 9 11 5 6 1022.3 1022.3 0.0
 
Date/Time
EDT
Temp
°C
App
Temp
°C
Dew
Point
°C
Rel
Hum
%
Delta-T
°C
Wind Press
QNH
hPa
Press
MSL
hPa
Rain since
9am
mm
Dir  Spd
km/h
Gust
km/h
Spd
kts
Gust
kts
22/11:30pm 10.1 7.8 9.0 93 0.5 E 11 13 6 7 1022.1 1022.1 0.0
22/11:00pm 10.2 7.5 8.8 91 0.7 ESE 13 17 7 9 1022.5 1022.5 0.0
22/10:30pm 10.3 7.9 8.7 90 0.8 ESE 11 11 6 6 1022.8 1022.8 0.0
22/10:00pm 10.4 8.4 8.8 90 0.8 ESE 9 11 5 6 1022.7 1022.7 0.0
22/09:30pm 11.8 10.4 9.7 87 1.1 NE 7 11 4 6 1022.9 1022.9 0.0
22/09:00pm 11.9 9.4 9.8 87 1.1 NNE 13 17 7 9 1022.9 1022.9 0.0
22/08:30pm 11.9 9.8 9.6 86 1.2 NNE 11 15 6 8 1023.0 1023.0 0.0
22/08:00pm 11.8 9.6 9.4 85 1.2 NNE 11 15 6 8 1023.0 1023.0 0.0
22/07:30pm 12.2 8.9 9.6 84 1.3 NNE 17 19 9 10 1022.6 1022.6 0.0
22/07:00pm 12.2 8.8 9.2 82 1.5 NE 17 20 9 11 1022.5 1022.5 0.0
22/06:30pm 12.6 8.9 9.6 82 1.5 NE 19 20 10 11 1022.4 1022.4 0.0
22/06:00pm 13.0 9.4 9.8 81 1.6 NNE 19 20 10 11 1022.5 1022.5 0.0
22/05:30pm 13.3 9.7 9.7 79 1.8 NE 19 20 10 11 1022.6 1022.6 0.0
22/05:00pm 13.5 10.2 9.7 78 1.9 NE 17 20 9 11 1022.7 1022.7 0.0
22/04:30pm 13.7 10.4 9.7 77 2.1 NNE 17 19 9 10 1023.1 1023.1 0.0
22/04:00pm 14.1 10.9 9.9 76 2.2 NE 17 20 9 11 1022.9 1022.9 0.0
22/03:30pm 14.2 10.6 9.8 75 2.3 NE 19 20 10 11 1023.3 1023.3 0.0
22/03:00pm 14.3 10.5 9.9 75 2.3 NE 20 22 11 12 1023.6 1023.6 0.0
22/02:30pm 14.1 10.6 10.1 77 2.1 NNE 19 22 10 12 1024.2 1024.2 0.0
22/02:00pm 14.1 10.3 9.9 76 2.2 NNE 20 22 11 12 1024.5 1024.5 0.0
22/01:30pm 14.1 10.3 9.9 76 2.2 NNE 20 24 11 13 1024.5 1024.5 0.0
22/01:00pm 13.4 8.8 9.8 79 1.8 NNE 24 26 13 14 1024.6 1024.6 0.0
22/12:30pm 14.1 9.7 10.5 79 1.9 NNE 24 28 13 15 1024.6 1024.6 0.0
22/12:00pm 13.8 9.4 10.4 80 1.8 NNE 24 28 13 15 1024.9 1024.9 0.0
22/11:30am 14.0 9.5 10.2 78 2.0 NE 24 28 13 15 1025.1 1025.1 0.0
22/11:00am 13.9 9.6 10.7 81 1.7 NE 24 28 13 15 1025.2 1025.2 0.0
22/10:30am 13.3 8.5 10.3 82 1.6 NE 26 28 14 15 1025.0 1025.0 0.0
22/10:00am 12.9 8.4 10.1 83 1.4 NE 24 30 13 16 1024.9 1024.9 0.0
22/09:30am 12.9 8.7 9.9 82 1.5 ENE 22 26 12 14 1024.9 1024.9 0.0
22/09:00am 12.5 8.9 9.7 83 1.4 E 19 26 10 14 1024.9 1024.9 0.0
22/08:30am 12.2 8.4 9.9 86 1.2 E 20 26 11 14 1024.7 1024.7 0.0
22/08:00am 11.3 8.8 9.7 90 0.8 SSE 13 17 7 9 1024.4 1024.4 0.0
22/07:30am 11.1 8.7 9.9 92 0.6 SSE 13 17 7 9 1024.1 1024.1 0.0
22/07:00am 11.2 9.1 9.8 91 0.7 ESE 11 15 6 8 1023.6 1023.6 0.0
22/06:30am 10.7 7.8 9.5 92 0.6 ESE 15 26 8 14 1023.4 1023.4 0.0
22/06:00am 10.7 7.8 9.5 92 0.6 ESE 15 24 8 13 1023.1 1023.1 0.0
22/05:30am 11.0 8.2 10.1 94 0.5 ESE 15 20 8 11 1022.6 1022.6 0.0
22/05:00am 9.8 7.6 9.5 98 0.1 SE 11 15 6 8 1022.4 1022.4 0.0
22/04:30am 9.4 6.7 8.8 96 0.3 SSE 13 15 7 8 1022.5 1022.5 0.0
22/04:00am 9.5 7.2 9.0 97 0.2 SSE 11 15 6 8 1022.4 1022.4 0.0
22/03:30am 10.0 7.8 9.2 95 0.4 ESE 11 15 6 8 1022.3 1022.3 0.0
22/03:00am 9.2 6.3 8.1 93 0.5 ESE 13 17 7 9 1022.2 1022.2 0.0
22/02:30am 9.6 7.0 7.7 88 0.9 E 11 15 6 8 1022.1 1022.1 0.0
22/02:00am 11.2 7.0 8.2 82 1.5 WSW 20 30 11 16 1022.2 1022.2 0.0
22/01:30am 11.9 5.7 9.5 85 1.2 W 32 37 17 20 1022.1 1022.1 0.0
22/01:00am 11.9 5.5 9.5 85 1.2 W 33 37 18 20 1022.1 1022.1 0.0
22/12:30am 12.0 5.8 9.4 84 1.3 W 32 37 17 20 1022.1 1022.1 0.0
22/12:00am 12.2 4.7 9.4 83 1.4 W 39 46 21 25 1022.0 1022.0 0.0
 
Date/Time
EDT
Temp
°C
App
Temp
°C
Dew
Point
°C
Rel
Hum
%
Delta-T
°C
Wind Press
QNH
hPa
Press
MSL
hPa
Rain since
9am
mm
Dir  Spd
km/h
Gust
km/h
Spd
kts
Gust
kts
21/11:30pm 12.4 5.3 9.6 83 1.4 W 37 43 20 23 1021.9 1021.9 0.0
21/11:00pm 12.6 6.4 10.0 84 1.3 W 33 39 18 21 1021.8 1021.8 0.0
21/10:30pm 12.9 7.0 10.6 86 1.2 W 32 35 17 19 1021.7 1021.7 0.0
21/10:00pm 13.3 8.2 10.5 83 1.5 W 28 33 15 18 1021.8 1021.8 0.0
21/09:30pm 13.6 7.7 11.0 84 1.4 W 33 39 18 21 1021.4 1021.4 0.0
21/09:00pm 13.6 7.9 11.3 86 1.2 W 32 37 17 20 1021.2 1021.2 0.0
21/08:30pm 13.7 9.1 11.2 85 1.3 W 26 32 14 17 1021.3 1021.3 0.0
21/08:00pm 13.7 9.9 11.2 85 1.3 WSW 22 30 12 16 1021.2 1021.2 0.0
21/07:30pm 14.1 8.1 10.7 80 1.8 WNW 33 41 18 22 1021.0 1021.0 0.0
21/07:00pm 14.4 8.0 10.8 79 1.9 WNW 35 43 19 23 1021.0 1021.0 0.0
21/06:30pm 14.6 7.8 10.8 78 2.0 WNW 37 44 20 24 1020.8 1020.8 0.0
21/06:00pm 14.7 8.4 11.1 79 1.9 NW 35 43 19 23 1020.8 1020.8 0.0
21/05:30pm 14.9 8.3 11.3 79 1.9 NW 37 43 20 23 1020.8 1020.8 0.0
21/05:00pm 14.9 8.3 11.3 79 1.9 NW 37 44 20 24 1021.0 1021.0 0.0
21/04:30pm 15.1 8.5 11.5 79 1.9 NW 37 44 20 24 1021.4 1021.4 0.0
21/04:00pm 15.0 9.1 11.2 78 2.0 NW 33 41 18 22 1021.6 1021.6 0.0
21/03:30pm 15.4 9.2 11.4 77 2.1 NW 35 43 19 23 1021.9 1021.9 0.0
21/03:00pm 15.6 8.9 11.0 74 2.4 NW 37 43 20 23 1022.2 1022.2 0.0
21/02:30pm 15.5 8.8 11.1 75 2.3 NW 37 43 20 23 1022.4 1022.4 0.0
21/02:00pm 15.6 8.6 11.2 75 2.3 NW 39 46 21 25 1022.5 1022.5 0.0
21/01:30pm 16.0 10.7 11.2 73 2.6 NW 30 35 16 19 1022.8 1022.8 0.0
21/01:00pm 15.7 10.3 10.9 73 2.5 NW 30 35 16 19 1023.0 1023.0 0.0
21/12:30pm 15.5 10.2 11.1 75 2.3 WNW 30 35 16 19 1023.1 1023.1 0.0
21/12:00pm 14.9 8.9 10.7 76 2.2 WNW 33 41 18 22 1023.4 1023.4 0.0
21/11:30am 14.5 8.6 10.3 76 2.2 WNW 32 39 17 21 1023.7 1023.7 0.0
21/11:00am 14.1 7.0 9.7 75 2.3 WNW 37 43 20 23 1023.9 1023.9 0.0
21/10:30am 14.2 8.2 10.0 76 2.2 WNW 32 35 17 19 1023.9 1023.9 0.0
21/10:00am 13.4 7.2 9.5 77 2.0 W 32 37 17 20 1023.7 1023.7 0.0
21/09:30am 13.1 7.6 9.2 77 2.0 W 28 32 15 17 1023.5 1023.5 0.0
21/09:00am 12.7 6.5 9.2 79 1.8 W 32 35 17 19 1023.4 1023.4 0.2
21/08:30am 12.2 5.8 8.5 78 1.8 W 32 35 17 19 1023.3 1023.3 0.2
21/08:00am 12.0 5.1 8.8 81 1.6 W 35 41 19 22 1023.1 1023.1 0.2
21/07:30am 11.9 4.6 8.6 80 1.6 W 37 43 20 23 1022.9 1022.9 0.2
21/07:00am 11.9 4.6 8.9 82 1.5 W 37 43 20 23 1022.4 1022.4 0.2
21/06:30am 11.7 5.4 8.9 83 1.4 W 32 37 17 20 1022.2 1022.2 0.2
21/06:00am 11.7 5.9 9.3 85 1.2 W 30 37 16 20 1022.0 1022.0 0.2
21/05:30am 11.5 5.5 8.7 83 1.4 W 30 37 16 20 1021.8 1021.8 0.2
21/05:00am 11.5 4.7 9.1 85 1.2 WNW 35 39 19 21 1021.4 1021.4 0.2
21/04:30am 11.4 4.5 8.8 84 1.3 WNW 35 39 19 21 1021.3 1021.3 0.2
21/04:00am 11.5 4.3 9.1 85 1.2 WNW 37 41 20 22 1021.2 1021.2 0.2
21/03:30am 11.5 5.0 8.9 84 1.3 WNW 33 39 18 21 1021.4 1021.4 0.2
21/03:00am 11.6 4.4 9.0 84 1.3 WNW 37 43 20 23 1021.4 1021.4 0.2
21/02:30am 11.6 4.4 9.0 84 1.3 WNW 37 44 20 24 1021.5 1021.5 0.2
21/02:00am 11.8 4.2 9.0 83 1.4 WNW 39 46 21 25 1021.6 1021.6 0.2
21/01:30am 11.8 4.2 9.2 84 1.3 WNW 39 44 21 24 1021.9 1021.9 0.2
21/01:00am 11.7 4.1 8.9 83 1.4 WNW 39 44 21 24 1022.1 1022.1 0.2
21/12:30am 11.9 4.6 8.9 82 1.5 WNW 37 43 20 23 1021.9 1021.9 0.2
21/12:00am 11.9 5.4 9.1 83 1.4 WNW 33 39 18 21 1022.0 1022.0 0.2
 
Date/Time
EDT
Temp
°C
App
Temp
°C
Dew
Point
°C
Rel
Hum
%
Delta-T
°C
Wind Press
QNH
hPa
Press
MSL
hPa
Rain since
9am
mm
Dir  Spd
km/h
Gust
km/h
Spd
kts
Gust
kts
20/11:30pm 12.0 5.5 9.0 82 1.5 WNW 33 41 18 22 1022.1 1022.1 0.2
20/11:00pm 12.1 5.3 9.3 83 1.4 WNW 35 39 19 21 1022.1 1022.1 0.2
20/10:30pm 12.3 6.5 9.5 83 1.4 WNW 30 35 16 19 1022.4 1022.4 0.2
20/10:00pm 12.4 6.3 9.6 83 1.4 WNW 32 39 17 21 1022.4 1022.4 0.2
20/09:30pm 12.6 6.8 9.6 82 1.5 WNW 30 35 16 19 1022.4 1022.4 0.2
20/09:00pm 12.8 6.1 9.6 81 1.6 W 35 41 19 22 1022.0 1022.0 0.2
20/08:30pm 13.0 4.8 9.6 80 1.7 W 43 50 23 27 1021.2 1021.2 0.2
20/08:00pm 13.2 6.9 9.8 80 1.7 W 33 43 18 23 1020.6 1020.6 0.2
20/07:30pm 13.3 5.6 10.3 82 1.6 W 41 50 22 27 1020.1 1020.1 0.2
20/07:00pm 13.3 6.2 10.8 85 1.3 WNW 39 48 21 26 1019.8 1019.8 0.2
20/06:30pm 13.2 4.7 10.6 84 1.4 W 46 52 25 28 1019.1 1019.1 0.2
20/06:00pm 13.4 5.3 10.6 83 1.5 W 44 50 24 27 1019.0 1019.0 0.2
20/05:30pm 13.5 4.6 10.5 82 1.6 W 48 57 26 31 1018.5 1018.5 0.2
20/05:00pm 13.5 2.9 10.5 82 1.6 W 57 69 31 37 1017.6 1017.6 0.2
20/04:30pm 13.7 4.5 10.9 83 1.5 WNW 50 57 27 31 1017.9 1017.9 0.2
20/04:00pm 13.4 3.4 10.8 84 1.4 WNW 54 61 29 33 1017.6 1017.6 0.2
20/03:30pm 13.5 4.2 10.5 82 1.6 WNW 50 59 27 32 1017.7 1017.7 0.2
20/03:00pm 13.6 3.9 10.4 81 1.7 WNW 52 61 28 33 1017.6 1017.6 0.2
20/02:30pm 13.5 3.7 10.1 80 1.8 WNW 52 65 28 35 1017.4 1017.4 0.2
20/02:00pm 13.6 4.2 10.2 80 1.8 WNW 50 57 27 31 1017.4 1017.4 0.2
20/01:30pm 13.6 4.2 10.0 79 1.9 WNW 50 63 27 34 1017.2 1017.2 0.2
20/01:00pm 13.4 4.3 10.0 80 1.7 WNW 48 59 26 32 1017.1 1017.1 0.2
20/12:30pm 13.6 4.1 9.8 78 2.0 WNW 50 59 27 32 1016.8 1016.8 0.2
20/12:00pm 13.5 4.0 9.9 79 1.8 WNW 50 61 27 33 1016.6 1016.6 0.0
20/11:30am 13.3 3.3 9.4 77 2.0 WNW 52 61 28 33 1016.4 1016.4 0.0
20/11:00am 13.3 4.1 9.5 78 1.9 WNW 48 59 26 32 1016.4 1016.4 0.0
20/10:30am 12.3 2.6 9.1 81 1.6 WNW 50 57 27 31 1016.3 1016.3 0.0
20/10:00am 12.2 2.9 9.0 81 1.6 WNW 48 59 26 32 1016.1 1016.1 0.0
20/09:30am 11.8 2.0 8.8 82 1.5 WNW 50 57 27 31 1015.8 1015.8 0.0
20/09:00am 11.6 2.5 8.6 82 1.5 WNW 46 54 25 29 1015.3 1015.3 0.2

Other formats

Comma delimited format used in spreadsheet applications
http://www.bom.gov.au/fwo/IDT60801/IDT60801.95964.axf

JavaScript Object Notation format (JSON) in row-major order
http://www.bom.gov.au/fwo/IDT60801/IDT60801.95964.json

Data quality

Most of these data are generated automatically and are frequently updated. Quality checks on data are not normally performed. It is possible for incorrect values to appear. Refer to information at About Latest Weather Observations and please check the disclaimer before using these data.